map of JRB home
JRB - Heliport
Location
City:  New York, New York, United States
Name:Downtown Manhattan/Wall St. Heliport
ICAO:KJRB
IATA:JRB
FAA LID:JRB

Details
Type:Heliport
Use:Public/Civil
Latitude:4042'04"N (40.701214)
Longitude:7400'32"W (-74.009027)
Datum:WGS 1984
Elevation:7 ft (2 m)
Variation:12.87W (WMM2015 magnetic declination)
0.03 annual change
Helipads:1
Largest:62 × 62 ft (19 × 19 m), paved

Time
Time Zone:UTC-5 (DST-4)
Local Time:

Weather
METAR:KJRB 200735Z 07010KT 10SM OVC020 20/17 A3010 RMK AO2 SLP301 PWINO FZRANO RVRNO

Related Locations
Nearby:
Farthest:YAUG: 11770 mi / 18941 km
Augusta [Augusta Airport], WA, AU

Find:

   beyond  
but within

Other Information
Maps:
NOTAMs:
Links:
Sources:

  
  • flag of United States
  • flag of New York
  • flag of New York
  

Sectional Chart

Flight Planning
at skyvector.com

Satellite Image

Google Maps Satellite view

 

Copyright © 2004-2018 Karl L. Swartz. All rights reserved.
The Great Circle Mapper name and logo are trademarks of the Great Circle Mapper.
All other trademarks mentioned herein belong to their respective owners.
Please see credits for attibutions and further copyright information.

  Follow gcmap on Facebook Follow gcmap on Twitter Follow gcmap on Google+ GCmap on LinkedIn

hCard Microformat

Geo Microformat